Stanford, Montana
Current Conditions -  °F | °C
As of 3:54 AM on Friday 19 Dec 2014 (Local Time) from KLWT Reporting Station
Clear Clear  
Wind Chill: 20°   Ceiling: Unl
Heat Index: 30°   Visibility: 10mi
Dew Point: 20°   Wind: 14mph
Humidity: 66%   Direction: 220°SW
Pressure: 29.9"   Gusts: NA
Location:  47.15°N, 110.22°W
Report Text: KLWT 191054Z AUTO 22012KT 10SM CLR M01/M07 A2990 RMK AO2 SLP146 T10111067
Loading
Personal Weather Stations






























Interactive Weather Map New forecast layout! Learn more

10-Day Weather Forecast

Advertisements
Track Severe Weather on mobile